Latest Coastal Weather Observations for Kingscote

IDS60701

Issued at 9:01 am CST Sunday 30 August 2015 (issued every 10 minutes, with the page automatically refreshed every 10 minutes)

About coastal observations | Map of coastal stations | Coastal observations for SA | Marine services | Other Formats
Station Details ID: 022841 Name: KINGSCOTE AERO Lat: -35.71 Lon: 137.52 Height: 6.23 m
Data from the previous 72 hours. | See also: Recent months at Kingscote
Date/Time
CST
Temp

°C
Wind Pressure Rain
since 9am
mm
Weather Cloud Vis
km
Sea
Height
m
Swell
Dir
 
Speed
knots
Gust
knots
hPa Trend Height
m
Period
s
Dir
30/09:00am 10.5 CALM 0 0 1026.7 - 0.0 - - 45 - - - -
30/08:30am 7.9 CALM 0 0 1026.7 - 0.0 - - 10 - - - -
30/08:00am 4.8 CALM 0 0 1026.7 - 0.0 - - 10 - - - -
30/07:30am 2.1 CALM 0 0 1026.6 - 0.0 - - 10 - - - -
30/07:00am 0.7 CALM 0 0 1026.5 - 0.0 - - 10 - - - -
30/06:30am 1.2 CALM 0 0 1026.4 - 0.0 - Partly cloudy 10 - - - -
30/06:00am 0.9 CALM 0 0 1026.3 - 0.0 - - 10 - - - -
30/05:30am 1.1 CALM 0 0 1026.3 - 0.0 - Partly cloudy 10 - - - -
30/05:00am 1.1 CALM 0 0 1026.0 - 0.0 - Partly cloudy 10 - - - -
30/04:30am 1.6 CALM 0 0 1025.9 - 0.0 - - 10 - - - -
30/04:00am 1.9 CALM 0 0 1026.0 - 0.0 - - 10 - - - -
30/03:30am 2.5 S 1 4 1026.1 - 0.0 - - 10 - - - -
30/03:00am 6.7 ESE 7 8 1026.3 - 0.0 - - 10 - - - -
30/02:30am 6.6 ESE 8 9 1026.6 - 0.0 - Partly cloudy 10 - - - -
30/02:00am 2.6 CALM 0 0 1027.0 - 0.0 - Partly cloudy 10 - - - -
30/01:30am 3.0 CALM 0 0 1027.4 - 0.0 - Partly cloudy 10 - - - -
30/01:00am 2.8 CALM 0 0 1027.6 - 0.0 - Partly cloudy 10 - - - -
30/12:30am 3.4 CALM 0 0 1027.7 - 0.0 - Partly cloudy 10 - - - -
30/12:00am 3.7 SE 4 4 1027.8 - 0.0 - Mostly clear 10 - - - -
 
Date/Time
CST
Temp

°C
Wind Pressure Rain
since 9am
mm
Weather Cloud Vis
km
Sea
Height
m
Swell
Dir
 
Speed
knots
Gust
knots
hPa Trend Height
m
Period
s
Dir
29/11:30pm 3.5 CALM 0 0 1028.0 - 0.0 - Partly cloudy 10 - - - -
29/11:00pm 3.6 CALM 0 0 1028.2 - 0.0 - Partly cloudy 10 - - - -
29/10:30pm 3.5 CALM 0 0 1028.4 - 0.0 - Partly cloudy 10 - - - -
29/10:00pm 4.0 CALM 0 0 1028.5 - 0.0 - Partly cloudy 10 - - - -
29/09:30pm 4.1 CALM 0 0 1028.6 - 0.0 - Partly cloudy 10 - - - -
29/09:00pm 3.1 CALM 0 0 1028.7 - 0.0 - Mostly clear 10 - - - -
29/08:30pm 2.9 CALM 0 0 1028.6 - 0.0 - Partly cloudy 10 - - - -
29/08:00pm 3.7 CALM 0 0 1028.4 - 0.0 - - 10 - - - -
29/07:30pm 4.6 CALM 0 0 1028.4 - 0.0 - - 10 - - - -
29/07:00pm 5.9 CALM 0 3 1028.2 - 0.0 - - 10 - - - -
29/06:30pm 6.7 SE 6 7 1028.1 - 0.0 - - 10 - - - -
29/06:00pm 7.9 SE 7 9 1028.0 - 0.0 - - 10 - - - -
29/05:30pm 9.2 SE 9 12 1027.7 - 0.0 - - 10 - - - -
29/05:00pm 10.2 ESE 9 13 1027.8 - 0.0 - - 10 - - - -
29/04:30pm 10.7 SE 12 17 1027.7 - 0.0 - - 10 - - - -
29/04:00pm 11.4 ESE 12 17 1027.7 - 0.0 - - 10 - - - -
29/03:30pm 11.9 SE 13 17 1027.6 - 0.0 - - 10 - - - -
29/03:00pm 12.8 SE 11 14 1027.6 - 0.0 - Mostly clear 10 - - - -
29/02:30pm 11.8 ENE 13 16 1027.7 - 0.0 - Partly cloudy 10 - - - -
29/02:00pm 12.7 ENE 14 17 1027.9 - 0.0 - Partly cloudy 10 - - - -
29/01:30pm 12.9 ENE 13 16 1028.3 - 0.0 - Partly cloudy 10 - - - -
29/01:00pm 13.1 ENE 15 19 1028.6 - 0.0 - Partly cloudy 10 - - - -
29/12:30pm 12.6 ENE 14 19 1029.0 - 0.0 - Partly cloudy 10 - - - -
29/12:00pm 12.4 ENE 15 19 1029.3 - 0.0 - Cloudy 10 - - - -
29/11:30am 12.3 ENE 14 19 1029.6 - 0.0 - Partly cloudy 10 - - - -
29/11:00am 12.4 E 15 18 1029.9 - 0.0 - Partly cloudy 10 - - - -
29/10:30am 11.8 E 13 17 1029.9 - 0.0 - Partly cloudy 10 - - - -
29/10:00am 11.4 E 13 16 1029.6 - 0.0 - Cloudy 10 - - - -
29/09:30am 10.9 E 10 14 1029.7 - 0.0 - Cloudy 10 - - - -
29/09:00am 10.8 E 9 13 1029.6 - 1.6 - Cloudy 10 - - - -
29/08:30am 10.4 E 9 11 1029.3 - 1.6 - Cloudy 10 - - - -
29/08:00am 9.5 ESE 7 9 1029.1 - 1.6 - Cloudy 10 - - - -
29/07:30am 8.5 ESE 6 6 1028.8 - 1.6 - Partly cloudy 10 - - - -
29/07:00am 8.6 SE 5 6 1028.4 - 1.6 - Cloudy 10 - - - -
29/06:30am 8.7 SE 5 5 1028.1 - 1.6 - Cloudy 10 - - - -
29/06:00am 8.8 SSE 4 5 1028.0 - 1.6 - Mostly cloudy 10 - - - -
29/05:30am 8.7 SE 5 5 1027.9 - 1.6 - Partly cloudy 10 - - - -
29/05:08am 8.4 SE 4 9 1027.9 - 1.6 - Partly cloudy 10 - - - -
29/05:00am 8.5 SE 3 5 1027.9 - 1.6 - Partly cloudy 7 - - - -
29/04:35am 7.6 CALM 0 0 1027.9 - 1.0 - Partly cloudy 5 - - - -
29/04:30am 7.5 CALM 0 0 1027.8 - 0.8 - Partly cloudy 10 - - - -
29/04:09am 7.1 CALM 0 0 1027.6 - 0.8 - Partly cloudy 5 - - - -
29/04:00am 7.4 CALM 0 0 1027.7 - 0.8 - Partly cloudy 10 - - - -
29/03:30am 7.7 CALM 0 0 1027.8 - 0.8 - Partly cloudy 10 - - - -
29/03:08am 7.2 CALM 0 0 1028.3 - 0.8 - Partly cloudy 10 - - - -
29/03:00am 7.0 CALM 0 0 1028.3 - 0.8 - Cloudy 10 - - - -
29/02:30am 6.8 CALM 0 0 1028.5 - 0.8 - - 0.8 - - - -
29/02:00am 6.6 CALM 0 0 1028.7 - 0.8 - Partly cloudy 0.8 - - - -
29/01:51am 7.1 CALM 0 0 1028.8 - 0.8 - Partly cloudy 5 - - - -
29/01:30am 7.9 CALM 0 0 1028.9 - 0.8 - Partly cloudy 10 - - - -
29/01:00am 8.7 CALM 0 0 1029.0 - 0.6 - Partly cloudy 10 - - - -
29/12:30am 8.4 CALM 0 0 1029.0 - 0.6 - Partly cloudy 10 - - - -
29/12:00am 8.9 CALM 0 0 1029.1 - 0.6 - Mostly cloudy 10 - - - -
 
Date/Time
CST
Temp

°C
Wind Pressure Rain
since 9am
mm
Weather Cloud Vis
km
Sea
Height
m
Swell
Dir
 
Speed
knots
Gust
knots
hPa Trend Height
m
Period
s
Dir
28/11:30pm 9.2 CALM 0 0 1029.1 - 0.6 - Cloudy 10 - - - -
28/11:10pm 9.2 WNW 2 4 1029.1 - 0.6 - Partly cloudy 8 - - - -
28/11:00pm 9.2 WSW 3 4 1029.1 - 0.6 - Partly cloudy 5 - - - -
28/10:57pm 9.2 WSW 3 4 1029.2 - 0.6 - Partly cloudy 4 - - - -
28/10:30pm 9.1 SSW 5 7 1029.3 - 0.0 - Partly cloudy 5 - - - -
28/10:28pm 9.0 SSW 5 7 1029.3 - 0.0 - Partly cloudy 5 - - - -
28/10:00pm 7.8 CALM 0 0 1029.4 - 0.0 - Partly cloudy 10 - - - -
28/09:30pm 7.4 CALM 0 0 1029.4 - 0.0 - Partly cloudy 10 - - - -
28/09:00pm 7.2 CALM 0 3 1029.2 - 0.0 - - 10 - - - -
28/08:30pm 8.4 WSW 4 4 1029.1 - 0.0 - Partly cloudy 10 - - - -
28/08:00pm 8.4 S 5 6 1029.1 - 0.0 - Partly cloudy 10 - - - -
28/07:30pm 9.2 S 6 6 1028.9 - 0.0 - Partly cloudy 10 - - - -
28/07:00pm 10.3 S 4 5 1028.8 - 0.0 - Cloudy 10 - - - -
28/06:30pm 10.9 SSE 5 6 1028.5 - 0.0 - Cloudy 10 - - - -
28/06:00pm 11.5 SSE 6 7 1028.3 - 0.0 - Cloudy 10 - - - -
28/05:30pm 11.9 SSE 7 9 1028.0 - 0.0 - Cloudy 10 - - - -
28/05:00pm 12.3 SSE 9 11 1028.0 - 0.0 - Cloudy 10 - - - -
28/04:30pm 13.0 ESE 8 12 1028.0 - 0.0 - Cloudy 10 - - - -
28/04:00pm 13.4 SE 11 14 1028.1 - 0.0 - Cloudy 10 - - - -
28/03:30pm 12.9 SSE 9 11 1028.2 - 0.0 - Partly cloudy 10 - - - -
28/03:00pm 13.2 SE 5 8 1028.3 - 0.0 - Mostly cloudy 10 - - - -
28/02:30pm 12.7 SE 7 10 1028.5 - 0.0 - Cloudy 10 - - - -
28/02:00pm 12.8 SE 9 13 1028.7 - 0.0 - Cloudy 10 - - - -
28/01:30pm 12.9 SSE 8 12 1028.9 - 0.0 - Cloudy 10 - - - -
28/01:00pm 13.1 SE 9 11 1029.2 - 0.0 - Cloudy 10 - - - -
28/12:30pm 13.0 SE 10 13 1029.6 - 0.0 - Cloudy 10 - - - -
28/12:00pm 13.2 SE 8 11 1029.9 - 0.0 - Cloudy 10 - - - -
28/11:30am 13.1 SSE 7 10 1030.3 - 0.0 - Cloudy 10 - - - -
28/11:00am 13.2 SSE 10 14 1030.4 - 0.0 - Cloudy 10 - - - -
28/10:30am 13.3 S 8 11 1030.6 - 0.0 - Partly cloudy 10 - - - -
28/10:00am 13.3 SSE 9 13 1030.5 - 0.0 - Partly cloudy 10 - - - -
28/09:30am 13.0 SE 12 16 1030.4 - 0.0 - Partly cloudy 10 - - - -
28/09:00am 12.3 SSE 9 13 1030.3 - 2.0 - Mostly clear 10 - - - -
28/08:30am 10.7 S 5 6 1030.4 - 2.0 - Partly cloudy 10 - - - -
28/08:00am 9.1 SSW 3 4 1030.3 - 2.0 - Cloudy 10 - - - -
28/07:30am 8.1 SSW 5 6 1030.0 - 2.0 - Cloudy 10 - - - -
28/07:00am 7.2 SSW 6 7 1029.8 - 2.0 - Partly cloudy 10 - - - -
28/06:30am 7.8 SSW 5 6 1029.6 - 2.0 - Cloudy 10 - - - -
28/06:00am 8.2 SSW 7 9 1029.4 - 2.0 - Partly cloudy 10 - - - -
28/05:30am 8.4 S 6 8 1029.3 - 2.0 - Cloudy 10 - - - -
28/05:00am 8.3 SSW 7 8 1029.3 - 2.0 - Cloudy 10 - - - -
28/04:30am 7.9 SSW 6 7 1029.0 - 2.0 - Cloudy 10 - - - -
28/04:00am 8.3 SSW 4 5 1028.9 - 2.0 - Cloudy 10 - - - -
28/03:30am 8.2 SSW 4 6 1028.8 - 2.0 - Partly cloudy 10 - - - -
28/03:00am 8.8 SSW 6 7 1028.9 - 2.0 - Mostly cloudy 10 - - - -
28/02:30am 9.0 SW 7 8 1029.1 - 2.0 - Partly cloudy 10 - - - -
28/02:00am 9.3 SSW 8 9 1029.3 - 2.0 - Cloudy 10 - - - -
28/01:30am 8.9 SSW 7 9 1029.3 - 2.0 - Partly cloudy 10 - - - -
28/01:00am 8.9 SSW 7 8 1029.2 - 2.0 - Partly cloudy 10 - - - -
28/12:30am 9.4 S 9 13 1029.0 - 2.0 - Partly cloudy 10 - - - -
28/12:26am 9.5 S 10 14 1029.0 - 2.0 - Partly cloudy 10 - - - -
28/12:04am 9.4 SSE 11 15 1029.1 - 2.0 - Partly cloudy 5 - - - -
28/12:01am 9.4 SSE 10 15 1029.1 - 1.8 - Partly cloudy 8 - - - -
28/12:00am 9.4 SSE 10 14 1029.1 - 1.8 Recent precip. Cloudy 10 - - - -
 
Date/Time
CST
Temp

°C
Wind Pressure Rain
since 9am
mm
Weather Cloud Vis
km
Sea
Height
m
Swell
Dir
 
Speed
knots
Gust
knots
hPa Trend Height
m
Period
s
Dir
27/11:41pm 9.6 SE 9 13 1029.2 - 1.6 - Partly cloudy 5 - - - -
27/11:30pm 9.0 SE 6 8 1029.2 - 1.6 - Partly cloudy 10 - - - -
27/11:00pm 8.7 SSW 8 11 1029.3 - 1.6 - Partly cloudy 10 - - - -
27/10:30pm 9.0 SSW 6 8 1029.4 - 1.4 - Partly cloudy 10 - - - -
27/10:19pm 9.3 SSW 7 9 1029.5 - 1.4 - Partly cloudy 7 - - - -
27/10:02pm 9.1 SSW 4 5 1029.7 - 1.2 - Partly cloudy 5 - - - -
27/10:00pm 9.1 SSW 4 5 1029.8 - 1.0 - Partly cloudy 7 - - - -
27/09:30pm 9.4 SSW 5 6 1029.6 - 1.0 - Partly cloudy 10 - - - -
27/09:27pm 9.5 SSW 5 7 1029.6 - 1.0 - Partly cloudy 10 - - - -
27/09:10pm 9.7 SSE 7 10 1029.5 - 0.8 - Partly cloudy 5 - - - -
27/09:00pm 9.7 S 7 9 1029.4 - 0.6 - Cloudy 10 - - - -
27/08:30pm 9.6 SSW 9 12 1029.3 - 0.6 - Partly cloudy 10 - - - -
27/08:18pm 9.8 S 9 11 1029.4 - 0.6 - Partly cloudy 10 - - - -
27/08:00pm 9.7 SSE 9 13 1029.2 - 0.6 - Partly cloudy 5 - - - -
27/07:30pm 9.8 S 10 13 1029.0 - 0.4 - Partly cloudy 10 - - - -
27/07:00pm 9.6 SSW 9 12 1028.6 - 0.4 - Partly cloudy 10 - - - -
27/06:30pm 9.3 SSW 7 9 1028.2 - 0.4 - Partly cloudy 10 - - - -
27/06:00pm 10.1 S 9 12 1028.0 - 0.4 - Partly cloudy 10 - - - -
27/05:30pm 10.7 SSW 10 14 1027.6 - 0.4 - Partly cloudy 10 - - - -
27/05:00pm 12.0 S 13 18 1027.2 - 0.4 - Partly cloudy 10 - - - -
27/04:30pm 12.1 S 12 17 1026.9 - 0.4 - Partly cloudy 10 - - - -
27/04:00pm 13.0 S 11 15 1026.6 - 0.4 - Partly cloudy 10 - - - -
27/03:30pm 12.9 S 12 17 1026.5 - 0.4 - Partly cloudy 10 - - - -
27/03:00pm 12.7 S 13 17 1026.4 - 0.4 - Partly cloudy 10 - - - -
27/02:30pm 12.5 S 15 19 1026.3 - 0.4 - Partly cloudy 10 - - - -
27/02:00pm 13.3 S 13 17 1026.3 - 0.4 - Partly cloudy 10 - - - -
27/01:30pm 14.0 S 15 21 1026.4 - 0.4 - Partly cloudy 10 - - - -
27/01:00pm 14.5 SSW 13 18 1026.5 - 0.4 - Partly cloudy 10 - - - -
27/12:30pm 13.4 S 10 14 1026.8 - 0.4 - Partly cloudy 10 - - - -
27/12:00pm 12.7 S 15 23 1027.0 - 0.4 Recent precip. Mostly cloudy 10 - - - -
27/11:57am 13.2 S 14 23 1027.0 - 0.4 - Partly cloudy 10 - - - -
27/11:30am 12.2 S 6 11 1027.1 - 0.4 - Partly cloudy 10 - - - -
27/11:00am 11.5 S 11 16 1027.3 - 0.2 - Partly cloudy 9 - - - -
27/10:30am 12.4 SSE 8 11 1027.2 - 0.0 - Partly cloudy 10 - - - -
27/10:00am 11.0 SSE 9 11 1027.1 - 0.0 - Partly cloudy 10 - - - -
27/09:30am 11.7 S 9 16 1027.0 - 0.0 - Partly cloudy 10 - - - -

Other Formats:

Comma delimited format used in spreadsheet applications
http://www.bom.gov.au/fwo/IDS60701/IDS60701.95807.axf

JavaScript Object Notation format (JSON) in row-major order
http://www.bom.gov.au/fwo/IDS60701/IDS60701.95807.json